sensor_id;sensor_type;location;lat;lon;timestamp;temperature;humidity
29775;DHT22;16676;51.202;6.774;2023-02-10T00:02:13;17.40;61.40
29775;DHT22;16676;51.202;6.774;2023-02-10T00:06:17;17.40;61.50
29775;DHT22;16676;51.202;6.774;2023-02-10T00:10:19;17.40;61.40
29775;DHT22;16676;51.202;6.774;2023-02-10T00:14:22;17.40;61.40
29775;DHT22;16676;51.202;6.774;2023-02-10T00:18:24;17.40;61.30
29775;DHT22;16676;51.202;6.774;2023-02-10T00:22:27;17.40;61.50
29775;DHT22;16676;51.202;6.774;2023-02-10T00:26:29;17.40;61.40
29775;DHT22;16676;51.202;6.774;2023-02-10T00:30:31;17.40;61.30
29775;DHT22;16676;51.202;6.774;2023-02-10T00:34:33;17.40;61.40
29775;DHT22;16676;51.202;6.774;2023-02-10T00:38:37;17.40;61.40
29775;DHT22;16676;51.202;6.774;2023-02-10T00:42:39;17.30;61.40
29775;DHT22;16676;51.202;6.774;2023-02-10T00:46:41;17.30;61.70
29775;DHT22;16676;51.202;6.774;2023-02-10T00:50:43;17.30;61.60
29775;DHT22;16676;51.202;6.774;2023-02-10T00:54:46;17.30;61.60
29775;DHT22;16676;51.202;6.774;2023-02-10T00:58:48;17.30;61.50
29775;DHT22;16676;51.202;6.774;2023-02-10T01:02:50;17.30;61.50
29775;DHT22;16676;51.202;6.774;2023-02-10T01:06:52;17.30;61.50
29775;DHT22;16676;51.202;6.774;2023-02-10T01:11:00;17.30;61.60
29775;DHT22;16676;51.202;6.774;2023-02-10T01:15:02;17.30;61.60
29775;DHT22;16676;51.202;6.774;2023-02-10T01:19:05;17.30;61.90
29775;DHT22;16676;51.202;6.774;2023-02-10T01:23:08;17.30;61.70
29775;DHT22;16676;51.202;6.774;2023-02-10T01:27:11;17.20;61.60
29775;DHT22;16676;51.202;6.774;2023-02-10T01:31:15;17.30;61.70
29775;DHT22;16676;51.202;6.774;2023-02-10T01:35:18;17.20;61.70
29775;DHT22;16676;51.202;6.774;2023-02-10T01:39:19;17.20;61.70
29775;DHT22;16676;51.202;6.774;2023-02-10T01:43:23;17.20;61.80
29775;DHT22;16676;51.202;6.774;2023-02-10T01:47:25;17.20;61.70
29775;DHT22;16676;51.202;6.774;2023-02-10T01:51:33;17.20;61.70
29775;DHT22;16676;51.202;6.774;2023-02-10T01:55:39;17.20;61.70
29775;DHT22;16676;51.202;6.774;2023-02-10T01:59:44;17.20;61.70
29775;DHT22;16676;51.202;6.774;2023-02-10T02:03:46;17.20;61.90
29775;DHT22;16676;51.202;6.774;2023-02-10T02:07:48;17.20;61.80
29775;DHT22;16676;51.202;6.774;2023-02-10T02:11:58;17.10;61.70
29775;DHT22;16676;51.202;6.774;2023-02-10T02:16:15;17.10;61.90
29775;DHT22;16676;51.202;6.774;2023-02-10T02:20:42;17.10;62.10
29775;DHT22;16676;51.202;6.774;2023-02-10T02:25:02;17.10;61.90
29775;DHT22;16676;51.202;6.774;2023-02-10T02:34:30;17.10;61.90
29775;DHT22;16676;51.202;6.774;2023-02-10T02:38:58;17.10;61.80
29775;DHT22;16676;51.202;6.774;2023-02-10T02:43:20;17.10;62.00
29775;DHT22;16676;51.202;6.774;2023-02-10T02:48:03;17.10;61.90
29775;DHT22;16676;51.202;6.774;2023-02-10T02:52:34;17.10;61.90
29775;DHT22;16676;51.202;6.774;2023-02-10T02:56:45;17.10;61.90
29775;DHT22;16676;51.202;6.774;2023-02-10T03:06:05;17.10;62.00
29775;DHT22;16676;51.202;6.774;2023-02-10T03:10:28;17.00;62.10
29775;DHT22;16676;51.202;6.774;2023-02-10T03:14:50;17.00;62.00
29775;DHT22;16676;51.202;6.774;2023-02-10T03:19:12;17.00;62.00
29775;DHT22;16676;51.202;6.774;2023-02-10T03:23:34;17.00;62.00
29775;DHT22;16676;51.202;6.774;2023-02-10T03:27:37;17.00;62.00
29775;DHT22;16676;51.202;6.774;2023-02-10T03:31:39;17.00;62.10
29775;DHT22;16676;51.202;6.774;2023-02-10T03:35:42;17.00;62.10
29775;DHT22;16676;51.202;6.774;2023-02-10T03:39:44;17.00;62.10
29775;DHT22;16676;51.202;6.774;2023-02-10T03:43:48;17.00;62.00
29775;DHT22;16676;51.202;6.774;2023-02-10T03:47:50;17.00;61.90
29775;DHT22;16676;51.202;6.774;2023-02-10T03:51:52;17.00;61.90
29775;DHT22;16676;51.202;6.774;2023-02-10T03:55:54;17.00;61.90
29775;DHT22;16676;51.202;6.774;2023-02-10T03:59:57;17.00;62.10
29775;DHT22;16676;51.202;6.774;2023-02-10T04:03:59;17.00;62.00
29775;DHT22;16676;51.202;6.774;2023-02-10T04:08:01;16.90;62.10
29775;DHT22;16676;51.202;6.774;2023-02-10T04:12:04;16.90;62.10
29775;DHT22;16676;51.202;6.774;2023-02-10T04:16:10;16.90;62.20
29775;DHT22;16676;51.202;6.774;2023-02-10T04:20:12;16.90;62.20
29775;DHT22;16676;51.202;6.774;2023-02-10T04:24:14;16.90;62.20
29775;DHT22;16676;51.202;6.774;2023-02-10T04:28:16;16.90;62.30
29775;DHT22;16676;51.202;6.774;2023-02-10T04:32:20;16.90;62.30
29775;DHT22;16676;51.202;6.774;2023-02-10T04:36:22;16.90;62.20
29775;DHT22;16676;51.202;6.774;2023-02-10T04:40:24;16.80;62.40
29775;DHT22;16676;51.202;6.774;2023-02-10T04:44:26;16.90;62.30
29775;DHT22;16676;51.202;6.774;2023-02-10T04:48:30;16.80;63.10
29775;DHT22;16676;51.202;6.774;2023-02-10T04:52:32;16.80;62.40
29775;DHT22;16676;51.202;6.774;2023-02-10T04:56:34;16.80;62.40
29775;DHT22;16676;51.202;6.774;2023-02-10T05:00:36;16.80;62.40
29775;DHT22;16676;51.202;6.774;2023-02-10T05:04:39;16.80;62.50
29775;DHT22;16676;51.202;6.774;2023-02-10T05:08:42;16.80;62.50
29775;DHT22;16676;51.202;6.774;2023-02-10T05:12:44;16.80;62.50
29775;DHT22;16676;51.202;6.774;2023-02-10T05:16:46;16.80;62.40
29775;DHT22;16676;51.202;6.774;2023-02-10T05:20:50;16.80;62.50
29775;DHT22;16676;51.202;6.774;2023-02-10T05:24:52;16.80;62.50
29775;DHT22;16676;51.202;6.774;2023-02-10T05:28:54;16.70;62.40
29775;DHT22;16676;51.202;6.774;2023-02-10T05:32:56;16.80;62.50
29775;DHT22;16676;51.202;6.774;2023-02-10T05:37:00;16.80;62.60
29775;DHT22;16676;51.202;6.774;2023-02-10T05:41:02;16.70;62.60
29775;DHT22;16676;51.202;6.774;2023-02-10T05:45:04;16.70;62.60
29775;DHT22;16676;51.202;6.774;2023-02-10T05:49:06;16.70;62.70
29775;DHT22;16676;51.202;6.774;2023-02-10T05:53:09;16.70;62.70
29775;DHT22;16676;51.202;6.774;2023-02-10T05:57:13;16.70;62.80
29775;DHT22;16676;51.202;6.774;2023-02-10T06:01:15;16.70;62.80
29775;DHT22;16676;51.202;6.774;2023-02-10T06:05:17;16.70;62.90
29775;DHT22;16676;51.202;6.774;2023-02-10T06:09:20;16.70;62.90
29775;DHT22;16676;51.202;6.774;2023-02-10T06:13:23;16.70;63.00
29775;DHT22;16676;51.202;6.774;2023-02-10T06:17:25;16.70;63.10
29775;DHT22;16676;51.202;6.774;2023-02-10T06:21:28;16.70;63.10
29775;DHT22;16676;51.202;6.774;2023-02-10T06:25:31;16.70;63.30
29775;DHT22;16676;51.202;6.774;2023-02-10T06:29:34;16.70;63.30
29775;DHT22;16676;51.202;6.774;2023-02-10T06:33:36;16.60;63.30
29775;DHT22;16676;51.202;6.774;2023-02-10T06:37:38;16.60;63.30
29775;DHT22;16676;51.202;6.774;2023-02-10T06:41:41;16.70;63.60
29775;DHT22;16676;51.202;6.774;2023-02-10T06:45:43;16.60;63.50
29775;DHT22;16676;51.202;6.774;2023-02-10T06:49:45;16.60;63.60
29775;DHT22;16676;51.202;6.774;2023-02-10T06:53:47;16.60;63.50
29775;DHT22;16676;51.202;6.774;2023-02-10T06:57:50;16.60;63.50
29775;DHT22;16676;51.202;6.774;2023-02-10T07:01:52;16.60;63.50
29775;DHT22;16676;51.202;6.774;2023-02-10T07:06:00;16.60;63.60
29775;DHT22;16676;51.202;6.774;2023-02-10T07:10:03;16.60;63.60
29775;DHT22;16676;51.202;6.774;2023-02-10T07:14:06;16.60;63.80
29775;DHT22;16676;51.202;6.774;2023-02-10T07:18:08;16.60;63.70
29775;DHT22;16676;51.202;6.774;2023-02-10T07:22:10;16.60;63.70
29775;DHT22;16676;51.202;6.774;2023-02-10T07:26:12;16.60;63.60
29775;DHT22;16676;51.202;6.774;2023-02-10T07:30:19;16.50;62.10
29775;DHT22;16676;51.202;6.774;2023-02-10T07:34:22;16.60;63.90
29775;DHT22;16676;51.202;6.774;2023-02-10T07:38:24;17.00;64.50
29775;DHT22;16676;51.202;6.774;2023-02-10T07:42:25;17.50;63.40
29775;DHT22;16676;51.202;6.774;2023-02-10T07:46:30;18.10;62.00
29775;DHT22;16676;51.202;6.774;2023-02-10T07:50:32;18.60;60.90
29775;DHT22;16676;51.202;6.774;2023-02-10T07:54:34;18.90;59.90
29775;DHT22;16676;51.202;6.774;2023-02-10T07:58:37;19.20;59.40
29775;DHT22;16676;51.202;6.774;2023-02-10T08:02:40;19.50;59.00
29775;DHT22;16676;51.202;6.774;2023-02-10T08:06:42;19.60;58.70
29775;DHT22;16676;51.202;6.774;2023-02-10T08:10:44;19.80;58.70
29775;DHT22;16676;51.202;6.774;2023-02-10T08:14:46;19.90;58.50
29775;DHT22;16676;51.202;6.774;2023-02-10T08:18:50;20.10;58.30
29775;DHT22;16676;51.202;6.774;2023-02-10T08:22:53;20.10;58.20
29775;DHT22;16676;51.202;6.774;2023-02-10T08:26:55;20.20;58.00
29775;DHT22;16676;51.202;6.774;2023-02-10T08:30:58;20.40;57.70
29775;DHT22;16676;51.202;6.774;2023-02-10T08:35:02;20.70;56.60
29775;DHT22;16676;51.202;6.774;2023-02-10T08:39:04;20.90;56.10
29775;DHT22;16676;51.202;6.774;2023-02-10T08:43:06;20.80;56.20
29775;DHT22;16676;51.202;6.774;2023-02-10T08:47:08;20.80;56.30
29775;DHT22;16676;51.202;6.774;2023-02-10T08:51:14;20.80;56.70
29775;DHT22;16676;51.202;6.774;2023-02-10T08:55:17;20.60;57.00
29775;DHT22;16676;51.202;6.774;2023-02-10T08:59:19;20.60;57.30
29775;DHT22;16676;51.202;6.774;2023-02-10T09:03:21;20.60;57.80
29775;DHT22;16676;51.202;6.774;2023-02-10T09:07:24;20.50;58.20
29775;DHT22;16676;51.202;6.774;2023-02-10T09:11:27;20.20;58.80
29775;DHT22;16676;51.202;6.774;2023-02-10T09:15:29;20.10;59.40
29775;DHT22;16676;51.202;6.774;2023-02-10T09:19:31;20.00;60.00
29775;DHT22;16676;51.202;6.774;2023-02-10T09:23:34;19.90;60.20
29775;DHT22;16676;51.202;6.774;2023-02-10T09:27:36;20.00;60.30
29775;DHT22;16676;51.202;6.774;2023-02-10T09:31:39;20.00;60.40
29775;DHT22;16676;51.202;6.774;2023-02-10T09:35:41;20.10;60.40
29775;DHT22;16676;51.202;6.774;2023-02-10T09:39:44;20.10;60.50
29775;DHT22;16676;51.202;6.774;2023-02-10T09:44:08;20.10;60.50
29775;DHT22;16676;51.202;6.774;2023-02-10T09:48:21;20.20;60.70
29775;DHT22;16676;51.202;6.774;2023-02-10T09:52:32;20.10;60.80
29775;DHT22;16676;51.202;6.774;2023-02-10T09:56:39;20.10;61.10
29775;DHT22;16676;51.202;6.774;2023-02-10T10:00:42;20.10;61.10
29775;DHT22;16676;51.202;6.774;2023-02-10T10:04:45;20.10;61.40
29775;DHT22;16676;51.202;6.774;2023-02-10T10:08:53;20.10;61.40
29775;DHT22;16676;51.202;6.774;2023-02-10T10:12:57;20.10;61.40
29775;DHT22;16676;51.202;6.774;2023-02-10T10:17:15;20.00;61.60
29775;DHT22;16676;51.202;6.774;2023-02-10T10:21:26;20.00;61.70
29775;DHT22;16676;51.202;6.774;2023-02-10T10:25:49;20.10;61.70
29775;DHT22;16676;51.202;6.774;2023-02-10T10:30:02;20.20;61.60
29775;DHT22;16676;51.202;6.774;2023-02-10T10:34:10;20.10;61.60
29775;DHT22;16676;51.202;6.774;2023-02-10T10:38:16;20.20;61.90
29775;DHT22;16676;51.202;6.774;2023-02-10T10:42:26;20.20;62.60
29775;DHT22;16676;51.202;6.774;2023-02-10T10:46:35;20.20;62.60
29775;DHT22;16676;51.202;6.774;2023-02-10T10:50:40;20.20;61.90
29775;DHT22;16676;51.202;6.774;2023-02-10T10:54:42;20.20;62.10
29775;DHT22;16676;51.202;6.774;2023-02-10T10:58:45;20.20;61.80
29775;DHT22;16676;51.202;6.774;2023-02-10T11:02:57;20.30;61.90
29775;DHT22;16676;51.202;6.774;2023-02-10T11:06:59;20.30;62.00
29775;DHT22;16676;51.202;6.774;2023-02-10T11:11:04;20.30;61.90
29775;DHT22;16676;51.202;6.774;2023-02-10T11:15:28;20.40;62.00
29775;DHT22;16676;51.202;6.774;2023-02-10T11:19:34;20.40;62.20
29775;DHT22;16676;51.202;6.774;2023-02-10T11:23:47;20.50;62.10
29775;DHT22;16676;51.202;6.774;2023-02-10T11:27:50;20.50;62.30
29775;DHT22;16676;51.202;6.774;2023-02-10T11:31:52;20.50;61.90
29775;DHT22;16676;51.202;6.774;2023-02-10T11:36:01;20.60;62.00
29775;DHT22;16676;51.202;6.774;2023-02-10T11:40:16;20.60;61.80
29775;DHT22;16676;51.202;6.774;2023-02-10T11:44:25;20.70;61.70
29775;DHT22;16676;51.202;6.774;2023-02-10T11:48:28;20.70;61.40
29775;DHT22;16676;51.202;6.774;2023-02-10T11:52:37;20.80;60.40
29775;DHT22;16676;51.202;6.774;2023-02-10T11:56:45;20.80;60.10
29775;DHT22;16676;51.202;6.774;2023-02-10T12:01:15;19.50;45.30
29775;DHT22;16676;51.202;6.774;2023-02-10T12:05:24;19.60;50.00
29775;DHT22;16676;51.202;6.774;2023-02-10T12:09:35;19.90;49.90
29775;DHT22;16676;51.202;6.774;2023-02-10T12:13:45;20.00;50.60
29775;DHT22;16676;51.202;6.774;2023-02-10T12:18:00;20.20;51.40
29775;DHT22;16676;51.202;6.774;2023-02-10T12:22:11;20.30;52.00
29775;DHT22;16676;51.202;6.774;2023-02-10T12:26:25;20.50;52.50
29775;DHT22;16676;51.202;6.774;2023-02-10T12:30:41;20.50;52.80
29775;DHT22;16676;51.202;6.774;2023-02-10T12:35:02;20.50;53.20
29775;DHT22;16676;51.202;6.774;2023-02-10T12:39:13;20.50;53.70
29775;DHT22;16676;51.202;6.774;2023-02-10T12:43:33;20.50;54.00
29775;DHT22;16676;51.202;6.774;2023-02-10T12:47:46;20.50;54.30
29775;DHT22;16676;51.202;6.774;2023-02-10T12:51:59;20.60;54.40
29775;DHT22;16676;51.202;6.774;2023-02-10T12:56:05;20.70;54.60
29775;DHT22;16676;51.202;6.774;2023-02-10T13:00:16;20.80;55.00
29775;DHT22;16676;51.202;6.774;2023-02-10T13:04:24;20.80;55.10
29775;DHT22;16676;51.202;6.774;2023-02-10T13:08:32;20.70;55.30
29775;DHT22;16676;51.202;6.774;2023-02-10T13:12:39;20.80;55.60
29775;DHT22;16676;51.202;6.774;2023-02-10T13:16:48;20.80;55.80
29775;DHT22;16676;51.202;6.774;2023-02-10T13:20:57;20.90;56.20
29775;DHT22;16676;51.202;6.774;2023-02-10T13:25:06;20.80;56.20
29775;DHT22;16676;51.202;6.774;2023-02-10T13:29:17;20.90;56.40
29775;DHT22;16676;51.202;6.774;2023-02-10T13:33:27;20.80;56.40
29775;DHT22;16676;51.202;6.774;2023-02-10T13:37:36;20.80;56.80
29775;DHT22;16676;51.202;6.774;2023-02-10T13:41:43;20.80;57.10
29775;DHT22;16676;51.202;6.774;2023-02-10T13:45:50;20.80;57.30
29775;DHT22;16676;51.202;6.774;2023-02-10T13:49:57;20.80;57.20
29775;DHT22;16676;51.202;6.774;2023-02-10T13:54:01;20.80;57.10
29775;DHT22;16676;51.202;6.774;2023-02-10T13:58:27;20.80;57.40
29775;DHT22;16676;51.202;6.774;2023-02-10T14:02:29;20.80;57.70
29775;DHT22;16676;51.202;6.774;2023-02-10T14:06:39;20.90;57.80
29775;DHT22;16676;51.202;6.774;2023-02-10T14:10:41;20.90;57.90
29775;DHT22;16676;51.202;6.774;2023-02-10T14:14:43;20.90;57.90
29775;DHT22;16676;51.202;6.774;2023-02-10T14:18:45;20.90;58.00
29775;DHT22;16676;51.202;6.774;2023-02-10T14:22:50;20.90;58.30
29775;DHT22;16676;51.202;6.774;2023-02-10T14:26:53;20.80;58.40
29775;DHT22;16676;51.202;6.774;2023-02-10T14:30:59;20.80;58.30
29775;DHT22;16676;51.202;6.774;2023-02-10T14:35:14;20.90;58.10
29775;DHT22;16676;51.202;6.774;2023-02-10T14:39:18;20.90;58.30
29775;DHT22;16676;51.202;6.774;2023-02-10T14:43:24;20.90;58.50
29775;DHT22;16676;51.202;6.774;2023-02-10T14:47:30;20.80;58.50
29775;DHT22;16676;51.202;6.774;2023-02-10T14:51:39;20.90;58.60
29775;DHT22;16676;51.202;6.774;2023-02-10T14:55:43;20.90;58.60
29775;DHT22;16676;51.202;6.774;2023-02-10T14:59:52;20.90;58.60
29775;DHT22;16676;51.202;6.774;2023-02-10T15:03:55;20.90;58.80
29775;DHT22;16676;51.202;6.774;2023-02-10T15:07:59;20.80;59.20
29775;DHT22;16676;51.202;6.774;2023-02-10T15:12:05;20.80;59.00
29775;DHT22;16676;51.202;6.774;2023-02-10T15:16:18;20.70;59.20
29775;DHT22;16676;51.202;6.774;2023-02-10T15:20:22;20.70;59.40
29775;DHT22;16676;51.202;6.774;2023-02-10T15:24:28;20.70;59.70
29775;DHT22;16676;51.202;6.774;2023-02-10T15:28:32;20.60;59.60
29775;DHT22;16676;51.202;6.774;2023-02-10T15:32:34;20.60;59.60
29775;DHT22;16676;51.202;6.774;2023-02-10T15:36:45;20.70;59.70
29775;DHT22;16676;51.202;6.774;2023-02-10T15:40:53;20.60;60.00
29775;DHT22;16676;51.202;6.774;2023-02-10T15:45:11;20.60;59.90
29775;DHT22;16676;51.202;6.774;2023-02-10T15:49:16;20.60;60.10
29775;DHT22;16676;51.202;6.774;2023-02-10T15:53:20;20.50;60.30
29775;DHT22;16676;51.202;6.774;2023-02-10T15:57:23;20.60;60.50
29775;DHT22;16676;51.202;6.774;2023-02-10T16:01:26;20.50;60.50
29775;DHT22;16676;51.202;6.774;2023-02-10T16:05:28;20.60;60.80
29775;DHT22;16676;51.202;6.774;2023-02-10T16:09:31;20.50;60.90
29775;DHT22;16676;51.202;6.774;2023-02-10T16:13:33;20.50;60.90
29775;DHT22;16676;51.202;6.774;2023-02-10T16:17:39;20.50;61.00
29775;DHT22;16676;51.202;6.774;2023-02-10T16:21:41;20.40;61.20
29775;DHT22;16676;51.202;6.774;2023-02-10T16:25:43;20.40;61.40
29775;DHT22;16676;51.202;6.774;2023-02-10T16:29:45;20.40;61.40
29775;DHT22;16676;51.202;6.774;2023-02-10T16:33:49;20.40;61.60
29775;DHT22;16676;51.202;6.774;2023-02-10T16:37:52;20.40;61.70
29775;DHT22;16676;51.202;6.774;2023-02-10T16:41:55;20.40;62.00
29775;DHT22;16676;51.202;6.774;2023-02-10T16:45:57;20.40;62.00
29775;DHT22;16676;51.202;6.774;2023-02-10T16:50:00;20.40;62.00
29775;DHT22;16676;51.202;6.774;2023-02-10T16:54:02;20.40;62.00
29775;DHT22;16676;51.202;6.774;2023-02-10T16:58:12;20.40;62.20
29775;DHT22;16676;51.202;6.774;2023-02-10T17:02:14;20.20;62.60
29775;DHT22;16676;51.202;6.774;2023-02-10T17:06:19;20.20;62.20
29775;DHT22;16676;51.202;6.774;2023-02-10T17:10:24;20.20;61.90
29775;DHT22;16676;51.202;6.774;2023-02-10T17:14:27;20.10;61.80
29775;DHT22;16676;51.202;6.774;2023-02-10T17:18:29;20.00;62.00
29775;DHT22;16676;51.202;6.774;2023-02-10T17:22:32;20.00;61.80
29775;DHT22;16676;51.202;6.774;2023-02-10T17:26:34;20.00;61.90
29775;DHT22;16676;51.202;6.774;2023-02-10T17:30:36;19.90;61.80
29775;DHT22;16676;51.202;6.774;2023-02-10T17:34:41;19.90;61.80
29775;DHT22;16676;51.202;6.774;2023-02-10T17:38:44;19.90;61.80
29775;DHT22;16676;51.202;6.774;2023-02-10T17:42:50;19.90;61.90
29775;DHT22;16676;51.202;6.774;2023-02-10T17:46:52;19.80;61.80
29775;DHT22;16676;51.202;6.774;2023-02-10T17:50:58;19.80;61.80
29775;DHT22;16676;51.202;6.774;2023-02-10T17:55:02;19.80;61.90
29775;DHT22;16676;51.202;6.774;2023-02-10T17:59:04;19.70;61.90
29775;DHT22;16676;51.202;6.774;2023-02-10T18:03:06;19.70;61.80
29775;DHT22;16676;51.202;6.774;2023-02-10T18:07:08;19.60;55.80
29775;DHT22;16676;51.202;6.774;2023-02-10T18:11:12;18.20;49.40
29775;DHT22;16676;51.202;6.774;2023-02-10T18:15:14;18.20;56.90
29775;DHT22;16676;51.202;6.774;2023-02-10T18:19:16;18.60;57.90
29775;DHT22;16676;51.202;6.774;2023-02-10T18:23:18;18.80;58.50
29775;DHT22;16676;51.202;6.774;2023-02-10T18:27:21;18.90;59.60
29775;DHT22;16676;51.202;6.774;2023-02-10T18:31:24;19.00;59.40
29775;DHT22;16676;51.202;6.774;2023-02-10T18:35:25;19.00;60.20
29775;DHT22;16676;51.202;6.774;2023-02-10T18:39:29;19.10;60.90
29775;DHT22;16676;51.202;6.774;2023-02-10T18:43:32;19.00;61.20
29775;DHT22;16676;51.202;6.774;2023-02-10T18:47:34;19.00;61.70
29775;DHT22;16676;51.202;6.774;2023-02-10T18:51:36;19.00;62.00
29775;DHT22;16676;51.202;6.774;2023-02-10T18:55:38;19.00;62.20
29775;DHT22;16676;51.202;6.774;2023-02-10T18:59:45;19.00;62.60
29775;DHT22;16676;51.202;6.774;2023-02-10T19:03:48;19.00;63.10
29775;DHT22;16676;51.202;6.774;2023-02-10T19:07:50;19.00;62.80
29775;DHT22;16676;51.202;6.774;2023-02-10T19:11:53;19.00;63.10
29775;DHT22;16676;51.202;6.774;2023-02-10T19:15:56;18.90;63.60
29775;DHT22;16676;51.202;6.774;2023-02-10T19:19:58;18.90;63.50
29775;DHT22;16676;51.202;6.774;2023-02-10T19:24:00;18.90;63.90
29775;DHT22;16676;51.202;6.774;2023-02-10T19:28:03;18.90;64.00
29775;DHT22;16676;51.202;6.774;2023-02-10T19:32:06;18.90;64.10
29775;DHT22;16676;51.202;6.774;2023-02-10T19:36:09;18.80;64.40
29775;DHT22;16676;51.202;6.774;2023-02-10T19:40:11;18.90;64.70
29775;DHT22;16676;51.202;6.774;2023-02-10T19:44:15;18.80;64.50
29775;DHT22;16676;51.202;6.774;2023-02-10T19:48:19;18.80;65.10
29775;DHT22;16676;51.202;6.774;2023-02-10T19:52:21;18.80;65.30
29775;DHT22;16676;51.202;6.774;2023-02-10T19:56:23;18.90;65.00
29775;DHT22;16676;51.202;6.774;2023-02-10T20:00:25;18.80;65.50
29775;DHT22;16676;51.202;6.774;2023-02-10T20:04:28;18.80;65.30
29775;DHT22;16676;51.202;6.774;2023-02-10T20:08:30;18.80;65.30
29775;DHT22;16676;51.202;6.774;2023-02-10T20:12:32;18.70;65.10
29775;DHT22;16676;51.202;6.774;2023-02-10T20:16:34;18.80;65.10
29775;DHT22;16676;51.202;6.774;2023-02-10T20:20:43;18.70;65.30
29775;DHT22;16676;51.202;6.774;2023-02-10T20:24:45;18.70;65.60
29775;DHT22;16676;51.202;6.774;2023-02-10T20:28:47;18.70;65.90
29775;DHT22;16676;51.202;6.774;2023-02-10T20:32:49;18.70;65.70
29775;DHT22;16676;51.202;6.774;2023-02-10T20:36:52;18.70;65.90
29775;DHT22;16676;51.202;6.774;2023-02-10T20:40:56;18.60;65.90
29775;DHT22;16676;51.202;6.774;2023-02-10T20:44:58;18.60;66.30
29775;DHT22;16676;51.202;6.774;2023-02-10T20:49:04;18.60;66.40
29775;DHT22;16676;51.202;6.774;2023-02-10T20:53:07;18.60;66.20
29775;DHT22;16676;51.202;6.774;2023-02-10T20:57:09;18.50;66.40
29775;DHT22;16676;51.202;6.774;2023-02-10T21:01:12;18.60;66.70
29775;DHT22;16676;51.202;6.774;2023-02-10T21:05:15;18.50;66.90
29775;DHT22;16676;51.202;6.774;2023-02-10T21:09:18;18.50;67.10
29775;DHT22;16676;51.202;6.774;2023-02-10T21:13:21;18.50;67.70
29775;DHT22;16676;51.202;6.774;2023-02-10T21:17:23;18.50;67.40
29775;DHT22;16676;51.202;6.774;2023-02-10T21:21:25;18.50;67.70
29775;DHT22;16676;51.202;6.774;2023-02-10T21:25:28;18.50;67.40
29775;DHT22;16676;51.202;6.774;2023-02-10T21:29:30;18.60;67.40
29775;DHT22;16676;51.202;6.774;2023-02-10T21:33:32;18.60;67.60
29775;DHT22;16676;51.202;6.774;2023-02-10T21:37:34;18.50;67.40
29775;DHT22;16676;51.202;6.774;2023-02-10T21:41:37;18.50;67.90
29775;DHT22;16676;51.202;6.774;2023-02-10T21:45:46;18.50;68.00
29775;DHT22;16676;51.202;6.774;2023-02-10T21:49:48;18.50;68.10
29775;DHT22;16676;51.202;6.774;2023-02-10T21:53:50;18.50;67.90
29775;DHT22;16676;51.202;6.774;2023-02-10T21:57:54;18.50;68.10
29775;DHT22;16676;51.202;6.774;2023-02-10T22:01:56;18.50;68.00
29775;DHT22;16676;51.202;6.774;2023-02-10T22:05:58;18.50;68.00
29775;DHT22;16676;51.202;6.774;2023-02-10T22:10:00;18.50;68.30
29775;DHT22;16676;51.202;6.774;2023-02-10T22:14:04;18.50;68.10
29775;DHT22;16676;51.202;6.774;2023-02-10T22:18:06;18.50;68.50
29775;DHT22;16676;51.202;6.774;2023-02-10T22:22:07;18.50;68.40
29775;DHT22;16676;51.202;6.774;2023-02-10T22:26:12;18.40;68.30
29775;DHT22;16676;51.202;6.774;2023-02-10T22:30:15;18.40;68.40
29775;DHT22;16676;51.202;6.774;2023-02-10T22:34:17;18.40;68.60
29775;DHT22;16676;51.202;6.774;2023-02-10T22:38:19;18.40;68.50
29775;DHT22;16676;51.202;6.774;2023-02-10T22:42:21;18.40;68.70
29775;DHT22;16676;51.202;6.774;2023-02-10T22:46:24;18.40;68.80
29775;DHT22;16676;51.202;6.774;2023-02-10T22:50:26;18.40;68.80
29775;DHT22;16676;51.202;6.774;2023-02-10T22:54:28;18.40;68.90
29775;DHT22;16676;51.202;6.774;2023-02-10T22:58:30;18.40;68.70
29775;DHT22;16676;51.202;6.774;2023-02-10T23:02:33;18.40;69.00
29775;DHT22;16676;51.202;6.774;2023-02-10T23:06:36;18.30;68.70
29775;DHT22;16676;51.202;6.774;2023-02-10T23:10:38;18.30;69.20
29775;DHT22;16676;51.202;6.774;2023-02-10T23:14:40;18.30;69.00
29775;DHT22;16676;51.202;6.774;2023-02-10T23:18:44;18.30;69.10
29775;DHT22;16676;51.202;6.774;2023-02-10T23:22:45;18.30;69.20
29775;DHT22;16676;51.202;6.774;2023-02-10T23:26:47;18.30;69.50
29775;DHT22;16676;51.202;6.774;2023-02-10T23:30:49;18.30;69.40
29775;DHT22;16676;51.202;6.774;2023-02-10T23:34:53;18.30;69.40
29775;DHT22;16676;51.202;6.774;2023-02-10T23:38:55;18.30;69.40
29775;DHT22;16676;51.202;6.774;2023-02-10T23:42:57;18.30;69.40
29775;DHT22;16676;51.202;6.774;2023-02-10T23:46:58;18.20;69.60
29775;DHT22;16676;51.202;6.774;2023-02-10T23:51:07;18.20;69.60
29775;DHT22;16676;51.202;6.774;2023-02-10T23:55:09;18.20;69.60
29775;DHT22;16676;51.202;6.774;2023-02-10T23:59:11;18.20;69.60
